Terminal Aerodrome Forecast
Issued by NWS Memphis, TN

Home | Current Version | Previous Version | Text Only | Print | Product List | Glossary On
Versions: 1 2 3 4 5 6 7 8 9 10 11 12 13 14 15 16 17
000
FTUS44 KMEG 300522
TAFMKL
TAF
KMKL 300522Z 3006/3106 00000KT P6SM -SHRA VCTS BKN040CB OVC100
     FM300700 33005KT P6SM BKN100
     FM301000 01004KT 6SM BR SKC
      TEMPO 3010/3013 3SM BR
     FM301900 04003KT P6SM SKC
     FM310100 00000KT P6SM SCT150=

USA.gov is the U.S. government's official web portal to all federal, state and local government web resources and services.